sensor_id;sensor_type;location;lat;lon;timestamp;P1;durP1;ratioP1;P2;durP2;ratioP2
57561;SDS011;43397;51.530;5.974;2022-07-18T00:00:18;6.28;;;1.88;;
57561;SDS011;43397;51.530;5.974;2022-07-18T00:02:44;6.93;;;2.75;;
57561;SDS011;43397;51.530;5.974;2022-07-18T00:05:10;5.95;;;2.92;;
57561;SDS011;43397;51.530;5.974;2022-07-18T00:07:36;7.13;;;2.47;;
57561;SDS011;43397;51.530;5.974;2022-07-18T00:10:02;6.55;;;3.10;;
57561;SDS011;43397;51.530;5.974;2022-07-18T00:12:29;6.82;;;2.67;;
57561;SDS011;43397;51.530;5.974;2022-07-18T00:14:56;7.03;;;2.50;;
57561;SDS011;43397;51.530;5.974;2022-07-18T00:17:21;6.30;;;2.25;;
57561;SDS011;43397;51.530;5.974;2022-07-18T00:19:47;5.70;;;2.63;;
57561;SDS011;43397;51.530;5.974;2022-07-18T00:22:13;7.03;;;2.97;;
57561;SDS011;43397;51.530;5.974;2022-07-18T00:24:39;8.02;;;3.35;;
57561;SDS011;43397;51.530;5.974;2022-07-18T00:27:05;5.60;;;2.42;;
57561;SDS011;43397;51.530;5.974;2022-07-18T00:29:31;7.10;;;2.83;;
57561;SDS011;43397;51.530;5.974;2022-07-18T00:31:58;5.85;;;2.50;;
57561;SDS011;43397;51.530;5.974;2022-07-18T00:34:24;7.68;;;2.50;;
57561;SDS011;43397;51.530;5.974;2022-07-18T00:36:50;9.75;;;2.65;;
57561;SDS011;43397;51.530;5.974;2022-07-18T00:39:16;5.95;;;2.80;;
57561;SDS011;43397;51.530;5.974;2022-07-18T00:41:44;5.55;;;2.85;;
57561;SDS011;43397;51.530;5.974;2022-07-18T00:44:15;5.72;;;2.80;;
57561;SDS011;43397;51.530;5.974;2022-07-18T00:46:41;7.47;;;3.00;;
57561;SDS011;43397;51.530;5.974;2022-07-18T00:49:08;8.57;;;3.00;;
57561;SDS011;43397;51.530;5.974;2022-07-18T00:51:34;6.53;;;3.10;;
57561;SDS011;43397;51.530;5.974;2022-07-18T00:54:00;5.45;;;2.80;;
57561;SDS011;43397;51.530;5.974;2022-07-18T00:56:26;7.30;;;3.42;;
57561;SDS011;43397;51.530;5.974;2022-07-18T00:58:51;6.85;;;2.80;;
57561;SDS011;43397;51.530;5.974;2022-07-18T01:03:42;7.80;;;3.33;;
57561;SDS011;43397;51.530;5.974;2022-07-18T01:06:10;6.13;;;2.88;;
57561;SDS011;43397;51.530;5.974;2022-07-18T01:08:35;7.43;;;2.75;;
57561;SDS011;43397;51.530;5.974;2022-07-18T01:11:01;5.82;;;3.15;;
57561;SDS011;43397;51.530;5.974;2022-07-18T01:13:27;7.00;;;2.92;;
57561;SDS011;43397;51.530;5.974;2022-07-18T01:15:53;7.25;;;2.88;;
57561;SDS011;43397;51.530;5.974;2022-07-18T01:18:18;7.13;;;3.35;;
57561;SDS011;43397;51.530;5.974;2022-07-18T01:20:46;5.80;;;3.10;;
57561;SDS011;43397;51.530;5.974;2022-07-18T01:23:11;6.78;;;2.90;;
57561;SDS011;43397;51.530;5.974;2022-07-18T01:25:37;6.47;;;3.15;;
57561;SDS011;43397;51.530;5.974;2022-07-18T01:28:03;7.00;;;3.17;;
57561;SDS011;43397;51.530;5.974;2022-07-18T01:30:29;9.07;;;3.40;;
57561;SDS011;43397;51.530;5.974;2022-07-18T01:32:56;9.25;;;3.88;;
57561;SDS011;43397;51.530;5.974;2022-07-18T01:35:23;7.22;;;3.13;;
57561;SDS011;43397;51.530;5.974;2022-07-18T01:37:52;6.82;;;3.28;;
57561;SDS011;43397;51.530;5.974;2022-07-18T01:42:43;7.40;;;3.30;;
57561;SDS011;43397;51.530;5.974;2022-07-18T01:45:09;7.93;;;3.30;;
57561;SDS011;43397;51.530;5.974;2022-07-18T01:47:35;8.48;;;3.47;;
57561;SDS011;43397;51.530;5.974;2022-07-18T01:50:01;8.40;;;3.70;;
57561;SDS011;43397;51.530;5.974;2022-07-18T01:52:27;5.93;;;2.97;;
57561;SDS011;43397;51.530;5.974;2022-07-18T01:54:54;6.53;;;2.83;;
57561;SDS011;43397;51.530;5.974;2022-07-18T01:57:20;6.22;;;2.97;;
57561;SDS011;43397;51.530;5.974;2022-07-18T01:59:46;6.68;;;3.20;;
57561;SDS011;43397;51.530;5.974;2022-07-18T02:02:12;7.25;;;2.90;;
57561;SDS011;43397;51.530;5.974;2022-07-18T02:04:37;7.03;;;3.15;;
57561;SDS011;43397;51.530;5.974;2022-07-18T02:07:03;6.38;;;3.20;;
57561;SDS011;43397;51.530;5.974;2022-07-18T02:09:29;6.45;;;3.17;;
57561;SDS011;43397;51.530;5.974;2022-07-18T02:11:56;8.85;;;2.70;;
57561;SDS011;43397;51.530;5.974;2022-07-18T02:14:22;7.82;;;3.10;;
57561;SDS011;43397;51.530;5.974;2022-07-18T02:16:48;7.70;;;2.90;;
57561;SDS011;43397;51.530;5.974;2022-07-18T02:19:13;7.97;;;3.42;;
57561;SDS011;43397;51.530;5.974;2022-07-18T02:21:39;6.43;;;3.08;;
57561;SDS011;43397;51.530;5.974;2022-07-18T02:24:05;5.80;;;2.75;;
57561;SDS011;43397;51.530;5.974;2022-07-18T02:26:31;6.30;;;2.90;;
57561;SDS011;43397;51.530;5.974;2022-07-18T02:28:58;5.43;;;2.90;;
57561;SDS011;43397;51.530;5.974;2022-07-18T02:31:24;5.55;;;3.00;;
57561;SDS011;43397;51.530;5.974;2022-07-18T02:33:49;8.88;;;3.30;;
57561;SDS011;43397;51.530;5.974;2022-07-18T02:36:15;7.10;;;2.90;;
57561;SDS011;43397;51.530;5.974;2022-07-18T02:38:41;6.15;;;3.35;;
57561;SDS011;43397;51.530;5.974;2022-07-18T02:41:07;6.97;;;3.05;;
57561;SDS011;43397;51.530;5.974;2022-07-18T02:43:33;7.18;;;3.20;;
57561;SDS011;43397;51.530;5.974;2022-07-18T02:46:00;7.82;;;3.20;;
57561;SDS011;43397;51.530;5.974;2022-07-18T02:48:26;7.13;;;3.20;;
57561;SDS011;43397;51.530;5.974;2022-07-18T02:50:51;8.57;;;3.20;;
57561;SDS011;43397;51.530;5.974;2022-07-18T02:55:42;7.85;;;3.28;;
57561;SDS011;43397;51.530;5.974;2022-07-18T02:58:08;7.13;;;3.10;;
57561;SDS011;43397;51.530;5.974;2022-07-18T03:00:34;7.03;;;3.15;;
57561;SDS011;43397;51.530;5.974;2022-07-18T03:03:01;6.45;;;3.13;;
57561;SDS011;43397;51.530;5.974;2022-07-18T03:05:27;7.35;;;3.45;;
57561;SDS011;43397;51.530;5.974;2022-07-18T03:07:53;6.97;;;3.95;;
57561;SDS011;43397;51.530;5.974;2022-07-18T03:12:44;8.25;;;3.25;;
57561;SDS011;43397;51.530;5.974;2022-07-18T03:15:09;6.15;;;3.10;;
57561;SDS011;43397;51.530;5.974;2022-07-18T03:17:35;6.68;;;2.95;;
57561;SDS011;43397;51.530;5.974;2022-07-18T03:20:03;6.68;;;3.20;;
57561;SDS011;43397;51.530;5.974;2022-07-18T03:22:29;6.60;;;3.15;;
57561;SDS011;43397;51.530;5.974;2022-07-18T03:24:55;8.05;;;3.13;;
57561;SDS011;43397;51.530;5.974;2022-07-18T03:27:21;8.82;;;3.67;;
57561;SDS011;43397;51.530;5.974;2022-07-18T03:29:47;8.18;;;3.15;;
57561;SDS011;43397;51.530;5.974;2022-07-18T03:32:12;7.10;;;2.90;;
57561;SDS011;43397;51.530;5.974;2022-07-18T03:34:38;7.97;;;2.70;;
57561;SDS011;43397;51.530;5.974;2022-07-18T03:37:05;6.60;;;3.08;;
57561;SDS011;43397;51.530;5.974;2022-07-18T03:39:31;7.57;;;2.60;;
57561;SDS011;43397;51.530;5.974;2022-07-18T03:41:57;7.10;;;3.33;;
57561;SDS011;43397;51.530;5.974;2022-07-18T03:44:22;8.73;;;3.22;;
57561;SDS011;43397;51.530;5.974;2022-07-18T03:46:48;7.78;;;3.20;;
57561;SDS011;43397;51.530;5.974;2022-07-18T03:49:14;7.68;;;3.38;;
57561;SDS011;43397;51.530;5.974;2022-07-18T03:51:40;6.35;;;3.30;;
57561;SDS011;43397;51.530;5.974;2022-07-18T03:54:07;7.82;;;3.67;;
57561;SDS011;43397;51.530;5.974;2022-07-18T03:56:33;9.10;;;3.78;;
57561;SDS011;43397;51.530;5.974;2022-07-18T03:58:59;5.70;;;3.33;;
57561;SDS011;43397;51.530;5.974;2022-07-18T04:01:25;8.45;;;3.40;;
57561;SDS011;43397;51.530;5.974;2022-07-18T04:03:50;8.07;;;3.83;;
57561;SDS011;43397;51.530;5.974;2022-07-18T04:08:43;9.95;;;3.97;;
57561;SDS011;43397;51.530;5.974;2022-07-18T04:11:09;8.15;;;3.75;;
57561;SDS011;43397;51.530;5.974;2022-07-18T04:13:34;6.68;;;3.97;;
57561;SDS011;43397;51.530;5.974;2022-07-18T04:16:01;8.82;;;3.97;;
57561;SDS011;43397;51.530;5.974;2022-07-18T04:18:26;8.00;;;3.92;;
57561;SDS011;43397;51.530;5.974;2022-07-18T04:20:52;9.80;;;4.18;;
57561;SDS011;43397;51.530;5.974;2022-07-18T04:25:45;9.15;;;4.38;;
57561;SDS011;43397;51.530;5.974;2022-07-18T04:28:11;8.32;;;3.80;;
57561;SDS011;43397;51.530;5.974;2022-07-18T04:30:38;10.82;;;4.20;;
57561;SDS011;43397;51.530;5.974;2022-07-18T04:33:06;9.32;;;4.38;;
57561;SDS011;43397;51.530;5.974;2022-07-18T04:35:33;9.52;;;3.95;;
57561;SDS011;43397;51.530;5.974;2022-07-18T04:37:59;9.90;;;4.25;;
57561;SDS011;43397;51.530;5.974;2022-07-18T04:40:25;8.20;;;4.45;;
57561;SDS011;43397;51.530;5.974;2022-07-18T04:42:52;10.13;;;4.10;;
57561;SDS011;43397;51.530;5.974;2022-07-18T04:47:43;7.53;;;4.10;;
57561;SDS011;43397;51.530;5.974;2022-07-18T04:50:09;8.95;;;4.22;;
57561;SDS011;43397;51.530;5.974;2022-07-18T04:52:35;8.43;;;4.13;;
57561;SDS011;43397;51.530;5.974;2022-07-18T04:55:02;7.43;;;3.63;;
57561;SDS011;43397;51.530;5.974;2022-07-18T04:57:28;9.38;;;4.03;;
57561;SDS011;43397;51.530;5.974;2022-07-18T04:59:55;8.25;;;3.40;;
57561;SDS011;43397;51.530;5.974;2022-07-18T05:02:21;10.45;;;3.88;;
57561;SDS011;43397;51.530;5.974;2022-07-18T05:04:47;9.27;;;3.83;;
57561;SDS011;43397;51.530;5.974;2022-07-18T05:07:12;9.75;;;3.80;;
57561;SDS011;43397;51.530;5.974;2022-07-18T05:09:38;6.25;;;3.30;;
57561;SDS011;43397;51.530;5.974;2022-07-18T05:12:04;9.88;;;4.07;;
57561;SDS011;43397;51.530;5.974;2022-07-18T05:14:30;8.30;;;3.47;;
57561;SDS011;43397;51.530;5.974;2022-07-18T05:16:57;6.95;;;3.85;;
57561;SDS011;43397;51.530;5.974;2022-07-18T05:19:23;10.07;;;3.93;;
57561;SDS011;43397;51.530;5.974;2022-07-18T05:21:49;9.25;;;3.65;;
57561;SDS011;43397;51.530;5.974;2022-07-18T05:24:15;10.30;;;3.70;;
57561;SDS011;43397;51.530;5.974;2022-07-18T05:26:41;12.40;;;4.20;;
57561;SDS011;43397;51.530;5.974;2022-07-18T05:29:07;8.80;;;4.15;;
57561;SDS011;43397;51.530;5.974;2022-07-18T05:31:33;8.38;;;3.80;;
57561;SDS011;43397;51.530;5.974;2022-07-18T05:34:01;8.07;;;3.58;;
57561;SDS011;43397;51.530;5.974;2022-07-18T05:36:26;8.27;;;3.53;;
57561;SDS011;43397;51.530;5.974;2022-07-18T05:38:52;11.23;;;4.07;;
57561;SDS011;43397;51.530;5.974;2022-07-18T05:43:43;9.77;;;4.40;;
57561;SDS011;43397;51.530;5.974;2022-07-18T05:46:09;6.75;;;3.38;;
57561;SDS011;43397;51.530;5.974;2022-07-18T05:48:35;6.90;;;3.47;;
57561;SDS011;43397;51.530;5.974;2022-07-18T05:51:02;9.85;;;3.80;;
57561;SDS011;43397;51.530;5.974;2022-07-18T05:53:28;7.57;;;3.38;;
57561;SDS011;43397;51.530;5.974;2022-07-18T05:55:54;8.43;;;3.90;;
57561;SDS011;43397;51.530;5.974;2022-07-18T05:58:19;10.10;;;3.60;;
57561;SDS011;43397;51.530;5.974;2022-07-18T06:00:45;9.80;;;4.10;;
57561;SDS011;43397;51.530;5.974;2022-07-18T06:03:11;10.68;;;4.50;;
57561;SDS011;43397;51.530;5.974;2022-07-18T06:05:37;8.13;;;3.80;;
57561;SDS011;43397;51.530;5.974;2022-07-18T06:08:05;6.78;;;3.28;;
57561;SDS011;43397;51.530;5.974;2022-07-18T06:10:31;9.57;;;4.33;;
57561;SDS011;43397;51.530;5.974;2022-07-18T06:12:57;9.60;;;4.07;;
57561;SDS011;43397;51.530;5.974;2022-07-18T06:15:23;6.82;;;3.90;;
57561;SDS011;43397;51.530;5.974;2022-07-18T06:17:49;7.85;;;4.40;;
57561;SDS011;43397;51.530;5.974;2022-07-18T06:20:15;9.60;;;3.83;;
57561;SDS011;43397;51.530;5.974;2022-07-18T06:22:41;10.20;;;4.65;;
57561;SDS011;43397;51.530;5.974;2022-07-18T06:25:09;11.07;;;4.13;;
57561;SDS011;43397;51.530;5.974;2022-07-18T06:27:35;10.10;;;5.10;;
57561;SDS011;43397;51.530;5.974;2022-07-18T06:30:01;8.30;;;4.40;;
57561;SDS011;43397;51.530;5.974;2022-07-18T06:32:27;11.85;;;4.90;;
57561;SDS011;43397;51.530;5.974;2022-07-18T06:34:53;7.47;;;4.85;;
57561;SDS011;43397;51.530;5.974;2022-07-18T06:39:44;12.45;;;5.30;;
57561;SDS011;43397;51.530;5.974;2022-07-18T06:42:11;13.32;;;5.05;;
57561;SDS011;43397;51.530;5.974;2022-07-18T06:44:37;9.32;;;4.82;;
57561;SDS011;43397;51.530;5.974;2022-07-18T06:47:03;11.20;;;5.35;;
57561;SDS011;43397;51.530;5.974;2022-07-18T06:49:29;13.32;;;5.65;;
57561;SDS011;43397;51.530;5.974;2022-07-18T06:51:55;7.43;;;4.55;;
57561;SDS011;43397;51.530;5.974;2022-07-18T06:54:21;10.38;;;5.93;;
57561;SDS011;43397;51.530;5.974;2022-07-18T06:56:47;8.70;;;4.97;;
57561;SDS011;43397;51.530;5.974;2022-07-18T06:59:15;11.23;;;5.30;;
57561;SDS011;43397;51.530;5.974;2022-07-18T07:01:41;12.32;;;5.28;;
57561;SDS011;43397;51.530;5.974;2022-07-18T07:04:06;11.25;;;5.35;;
57561;SDS011;43397;51.530;5.974;2022-07-18T07:06:32;12.02;;;5.38;;
57561;SDS011;43397;51.530;5.974;2022-07-18T07:08:58;10.77;;;5.60;;
57561;SDS011;43397;51.530;5.974;2022-07-18T07:11:24;12.07;;;4.95;;
57561;SDS011;43397;51.530;5.974;2022-07-18T07:13:50;10.18;;;4.07;;
57561;SDS011;43397;51.530;5.974;2022-07-18T07:18:43;13.40;;;4.60;;
57561;SDS011;43397;51.530;5.974;2022-07-18T07:21:09;12.55;;;5.15;;
57561;SDS011;43397;51.530;5.974;2022-07-18T07:23:35;10.13;;;4.03;;
57561;SDS011;43397;51.530;5.974;2022-07-18T07:26:01;9.20;;;4.45;;
57561;SDS011;43397;51.530;5.974;2022-07-18T07:28:27;10.27;;;4.60;;
57561;SDS011;43397;51.530;5.974;2022-07-18T07:30:53;10.82;;;4.40;;
57561;SDS011;43397;51.530;5.974;2022-07-18T07:35:45;15.60;;;4.50;;
57561;SDS011;43397;51.530;5.974;2022-07-18T07:38:11;13.90;;;4.50;;
57561;SDS011;43397;51.530;5.974;2022-07-18T07:40:37;10.05;;;3.78;;
57561;SDS011;43397;51.530;5.974;2022-07-18T07:43:07;9.00;;;4.13;;
57561;SDS011;43397;51.530;5.974;2022-07-18T07:45:35;10.90;;;3.40;;
57561;SDS011;43397;51.530;5.974;2022-07-18T07:48:02;9.88;;;3.78;;
57561;SDS011;43397;51.530;5.974;2022-07-18T07:50:28;12.63;;;4.20;;
57561;SDS011;43397;51.530;5.974;2022-07-18T07:52:56;9.80;;;3.78;;
57561;SDS011;43397;51.530;5.974;2022-07-18T07:55:22;6.82;;;2.88;;
57561;SDS011;43397;51.530;5.974;2022-07-18T07:57:48;10.13;;;3.40;;
57561;SDS011;43397;51.530;5.974;2022-07-18T08:00:14;11.25;;;3.20;;
57561;SDS011;43397;51.530;5.974;2022-07-18T08:02:50;8.85;;;3.60;;
57561;SDS011;43397;51.530;5.974;2022-07-18T08:07:42;11.43;;;3.35;;
57561;SDS011;43397;51.530;5.974;2022-07-18T08:10:09;11.25;;;3.70;;
57561;SDS011;43397;51.530;5.974;2022-07-18T08:12:35;9.82;;;3.08;;
57561;SDS011;43397;51.530;5.974;2022-07-18T08:15:01;8.52;;;3.20;;
57561;SDS011;43397;51.530;5.974;2022-07-18T08:17:27;8.82;;;3.50;;
57561;SDS011;43397;51.530;5.974;2022-07-18T08:19:53;7.50;;;3.70;;
57561;SDS011;43397;51.530;5.974;2022-07-18T08:24:44;12.75;;;3.42;;
57561;SDS011;43397;51.530;5.974;2022-07-18T08:27:11;12.57;;;4.38;;
57561;SDS011;43397;51.530;5.974;2022-07-18T08:29:37;12.38;;;4.30;;
57561;SDS011;43397;51.530;5.974;2022-07-18T08:32:03;9.07;;;3.90;;
57561;SDS011;43397;51.530;5.974;2022-07-18T08:34:29;8.23;;;3.42;;
57561;SDS011;43397;51.530;5.974;2022-07-18T08:36:55;10.38;;;4.00;;
57561;SDS011;43397;51.530;5.974;2022-07-18T08:39:21;8.80;;;3.40;;
57561;SDS011;43397;51.530;5.974;2022-07-18T08:41:47;6.80;;;3.05;;
57561;SDS011;43397;51.530;5.974;2022-07-18T08:46:47;7.25;;;2.65;;
57561;SDS011;43397;51.530;5.974;2022-07-18T08:49:15;6.20;;;2.30;;
57561;SDS011;43397;51.530;5.974;2022-07-18T08:51:41;6.53;;;2.20;;
57561;SDS011;43397;51.530;5.974;2022-07-18T08:54:08;7.55;;;2.60;;
57561;SDS011;43397;51.530;5.974;2022-07-18T08:56:34;8.98;;;2.83;;
57561;SDS011;43397;51.530;5.974;2022-07-18T08:59:00;6.70;;;2.10;;
57561;SDS011;43397;51.530;5.974;2022-07-18T09:01:26;6.28;;;2.60;;
57561;SDS011;43397;51.530;5.974;2022-07-18T09:03:54;6.25;;;2.55;;
57561;SDS011;43397;51.530;5.974;2022-07-18T09:06:19;6.43;;;2.35;;
57561;SDS011;43397;51.530;5.974;2022-07-18T09:08:56;9.93;;;2.67;;
57561;SDS011;43397;51.530;5.974;2022-07-18T09:11:23;8.50;;;2.70;;
57561;SDS011;43397;51.530;5.974;2022-07-18T09:13:49;8.95;;;3.00;;
57561;SDS011;43397;51.530;5.974;2022-07-18T09:16:15;11.95;;;2.92;;
57561;SDS011;43397;51.530;5.974;2022-07-18T09:18:41;8.15;;;2.70;;
57561;SDS011;43397;51.530;5.974;2022-07-18T09:21:11;7.82;;;2.58;;
57561;SDS011;43397;51.530;5.974;2022-07-18T09:23:38;9.23;;;3.05;;
57561;SDS011;43397;51.530;5.974;2022-07-18T09:26:06;9.32;;;3.10;;
57561;SDS011;43397;51.530;5.974;2022-07-18T09:28:45;6.60;;;2.50;;
57561;SDS011;43397;51.530;5.974;2022-07-18T09:31:16;10.70;;;3.42;;
57561;SDS011;43397;51.530;5.974;2022-07-18T09:33:50;8.77;;;3.15;;
57561;SDS011;43397;51.530;5.974;2022-07-18T09:38:45;12.63;;;3.60;;
57561;SDS011;43397;51.530;5.974;2022-07-18T09:41:11;8.50;;;2.88;;
57561;SDS011;43397;51.530;5.974;2022-07-18T09:43:37;9.98;;;3.38;;
57561;SDS011;43397;51.530;5.974;2022-07-18T09:46:03;9.43;;;3.20;;
57561;SDS011;43397;51.530;5.974;2022-07-18T09:48:30;9.65;;;2.90;;
57561;SDS011;43397;51.530;5.974;2022-07-18T09:50:57;12.18;;;3.25;;
57561;SDS011;43397;51.530;5.974;2022-07-18T09:53:25;9.77;;;3.20;;
57561;SDS011;43397;51.530;5.974;2022-07-18T09:55:54;6.65;;;2.58;;
57561;SDS011;43397;51.530;5.974;2022-07-18T09:58:21;9.10;;;3.10;;
57561;SDS011;43397;51.530;5.974;2022-07-18T10:00:48;8.65;;;3.42;;
57561;SDS011;43397;51.530;5.974;2022-07-18T10:03:14;12.07;;;3.75;;
57561;SDS011;43397;51.530;5.974;2022-07-18T10:05:41;7.10;;;2.70;;
57561;SDS011;43397;51.530;5.974;2022-07-18T10:08:08;6.78;;;3.05;;
57561;SDS011;43397;51.530;5.974;2022-07-18T10:10:35;10.63;;;3.42;;
57561;SDS011;43397;51.530;5.974;2022-07-18T10:13:03;11.50;;;3.67;;
57561;SDS011;43397;51.530;5.974;2022-07-18T10:17:57;8.30;;;3.53;;
57561;SDS011;43397;51.530;5.974;2022-07-18T10:20:25;7.47;;;2.80;;
57561;SDS011;43397;51.530;5.974;2022-07-18T10:25:21;6.38;;;3.45;;
57561;SDS011;43397;51.530;5.974;2022-07-18T10:27:47;7.68;;;3.00;;
57561;SDS011;43397;51.530;5.974;2022-07-18T10:30:16;8.20;;;2.90;;
57561;SDS011;43397;51.530;5.974;2022-07-18T10:32:44;8.30;;;2.88;;
57561;SDS011;43397;51.530;5.974;2022-07-18T10:35:10;6.15;;;2.50;;
57561;SDS011;43397;51.530;5.974;2022-07-18T10:37:41;6.50;;;2.60;;
57561;SDS011;43397;51.530;5.974;2022-07-18T10:42:42;7.95;;;2.78;;
57561;SDS011;43397;51.530;5.974;2022-07-18T10:47:44;8.07;;;2.85;;
57561;SDS011;43397;51.530;5.974;2022-07-18T10:50:09;9.10;;;3.35;;
57561;SDS011;43397;51.530;5.974;2022-07-18T10:52:57;8.70;;;3.13;;
57561;SDS011;43397;51.530;5.974;2022-07-18T10:55:27;9.07;;;2.97;;
57561;SDS011;43397;51.530;5.974;2022-07-18T11:00:41;9.25;;;2.90;;
57561;SDS011;43397;51.530;5.974;2022-07-18T11:03:13;8.45;;;2.67;;
57561;SDS011;43397;51.530;5.974;2022-07-18T11:05:42;8.02;;;2.67;;
57561;SDS011;43397;51.530;5.974;2022-07-18T11:08:15;5.90;;;2.33;;
57561;SDS011;43397;51.530;5.974;2022-07-18T11:13:44;7.40;;;2.70;;
57561;SDS011;43397;51.530;5.974;2022-07-18T11:21:44;5.28;;;2.35;;
57561;SDS011;43397;51.530;5.974;2022-07-18T11:24:10;6.47;;;2.38;;
57561;SDS011;43397;51.530;5.974;2022-07-18T11:26:36;7.10;;;2.60;;
57561;SDS011;43397;51.530;5.974;2022-07-18T11:29:05;7.65;;;2.08;;
57561;SDS011;43397;51.530;5.974;2022-07-18T11:34:07;6.30;;;2.50;;
57561;SDS011;43397;51.530;5.974;2022-07-18T11:36:33;8.55;;;2.50;;
57561;SDS011;43397;51.530;5.974;2022-07-18T11:39:03;5.50;;;2.20;;
57561;SDS011;43397;51.530;5.974;2022-07-18T11:41:29;7.00;;;2.60;;
57561;SDS011;43397;51.530;5.974;2022-07-18T11:43:55;7.18;;;2.67;;
57561;SDS011;43397;51.530;5.974;2022-07-18T11:46:22;6.50;;;2.30;;
57561;SDS011;43397;51.530;5.974;2022-07-18T11:49:00;9.63;;;2.33;;
57561;SDS011;43397;51.530;5.974;2022-07-18T11:51:33;9.32;;;2.60;;
57561;SDS011;43397;51.530;5.974;2022-07-18T11:54:01;5.60;;;2.63;;
57561;SDS011;43397;51.530;5.974;2022-07-18T11:56:27;9.80;;;2.97;;
57561;SDS011;43397;51.530;5.974;2022-07-18T11:58:53;6.85;;;2.72;;
57561;SDS011;43397;51.530;5.974;2022-07-18T12:03:45;7.60;;;2.50;;
57561;SDS011;43397;51.530;5.974;2022-07-18T12:06:13;7.00;;;2.50;;
57561;SDS011;43397;51.530;5.974;2022-07-18T12:08:40;6.53;;;2.60;;
57561;SDS011;43397;51.530;5.974;2022-07-18T12:11:13;5.45;;;2.17;;
57561;SDS011;43397;51.530;5.974;2022-07-18T12:13:45;9.82;;;2.63;;
57561;SDS011;43397;51.530;5.974;2022-07-18T12:18:47;8.27;;;2.67;;
57561;SDS011;43397;51.530;5.974;2022-07-18T12:21:14;7.50;;;2.28;;
57561;SDS011;43397;51.530;5.974;2022-07-18T12:23:40;8.32;;;3.03;;
57561;SDS011;43397;51.530;5.974;2022-07-18T12:26:06;5.50;;;2.10;;
57561;SDS011;43397;51.530;5.974;2022-07-18T12:28:33;8.80;;;2.35;;
57561;SDS011;43397;51.530;5.974;2022-07-18T12:30:59;6.70;;;2.47;;
57561;SDS011;43397;51.530;5.974;2022-07-18T12:33:25;6.55;;;2.80;;
57561;SDS011;43397;51.530;5.974;2022-07-18T12:35:54;7.32;;;2.80;;
57561;SDS011;43397;51.530;5.974;2022-07-18T12:38:21;8.25;;;2.92;;
57561;SDS011;43397;51.530;5.974;2022-07-18T12:40:48;7.15;;;2.78;;
57561;SDS011;43397;51.530;5.974;2022-07-18T12:43:16;4.90;;;2.50;;
57561;SDS011;43397;51.530;5.974;2022-07-18T12:45:44;5.18;;;2.17;;
57561;SDS011;43397;51.530;5.974;2022-07-18T12:48:10;5.65;;;2.35;;
57561;SDS011;43397;51.530;5.974;2022-07-18T12:50:38;7.40;;;2.70;;
57561;SDS011;43397;51.530;5.974;2022-07-18T12:53:05;7.20;;;2.25;;
57561;SDS011;43397;51.530;5.974;2022-07-18T12:55:31;6.38;;;2.20;;
57561;SDS011;43397;51.530;5.974;2022-07-18T12:57:57;5.63;;;2.55;;
57561;SDS011;43397;51.530;5.974;2022-07-18T13:00:23;5.28;;;2.15;;
57561;SDS011;43397;51.530;5.974;2022-07-18T13:02:50;5.88;;;2.20;;
57561;SDS011;43397;51.530;5.974;2022-07-18T13:05:16;6.18;;;2.40;;
57561;SDS011;43397;51.530;5.974;2022-07-18T13:07:42;5.68;;;2.33;;
57561;SDS011;43397;51.530;5.974;2022-07-18T13:10:08;7.13;;;2.13;;
57561;SDS011;43397;51.530;5.974;2022-07-18T13:12:34;7.03;;;2.20;;
57561;SDS011;43397;51.530;5.974;2022-07-18T13:14:59;5.20;;;2.15;;
57561;SDS011;43397;51.530;5.974;2022-07-18T13:17:25;4.45;;;2.00;;
57561;SDS011;43397;51.530;5.974;2022-07-18T13:19:52;5.18;;;2.00;;
57561;SDS011;43397;51.530;5.974;2022-07-18T13:24:43;7.75;;;2.05;;
57561;SDS011;43397;51.530;5.974;2022-07-18T13:27:09;5.15;;;2.13;;
57561;SDS011;43397;51.530;5.974;2022-07-18T13:29:35;5.22;;;2.03;;
57561;SDS011;43397;51.530;5.974;2022-07-18T13:32:01;5.03;;;2.00;;
57561;SDS011;43397;51.530;5.974;2022-07-18T13:34:27;5.43;;;2.15;;
57561;SDS011;43397;51.530;5.974;2022-07-18T13:36:54;5.20;;;2.10;;
57561;SDS011;43397;51.530;5.974;2022-07-18T13:41:45;4.35;;;2.15;;
57561;SDS011;43397;51.530;5.974;2022-07-18T13:44:11;6.15;;;2.22;;
57561;SDS011;43397;51.530;5.974;2022-07-18T13:46:38;4.63;;;2.08;;
57561;SDS011;43397;51.530;5.974;2022-07-18T13:49:04;4.97;;;2.10;;
57561;SDS011;43397;51.530;5.974;2022-07-18T13:51:30;6.95;;;2.03;;
57561;SDS011;43397;51.530;5.974;2022-07-18T13:53:58;6.82;;;2.33;;
57561;SDS011;43397;51.530;5.974;2022-07-18T13:56:23;4.80;;;2.40;;
57561;SDS011;43397;51.530;5.974;2022-07-18T13:58:49;4.90;;;2.38;;
57561;SDS011;43397;51.530;5.974;2022-07-18T14:01:15;4.38;;;2.25;;
57561;SDS011;43397;51.530;5.974;2022-07-18T14:03:41;4.95;;;2.10;;
57561;SDS011;43397;51.530;5.974;2022-07-18T14:06:06;5.55;;;1.90;;
57561;SDS011;43397;51.530;5.974;2022-07-18T14:08:32;6.35;;;2.50;;
57561;SDS011;43397;51.530;5.974;2022-07-18T14:10:59;4.47;;;1.98;;
57561;SDS011;43397;51.530;5.974;2022-07-18T14:13:25;6.25;;;2.60;;
57561;SDS011;43397;51.530;5.974;2022-07-18T14:15:51;4.68;;;2.10;;
57561;SDS011;43397;51.530;5.974;2022-07-18T14:18:17;5.15;;;1.92;;
57561;SDS011;43397;51.530;5.974;2022-07-18T14:20:43;5.20;;;2.08;;
57561;SDS011;43397;51.530;5.974;2022-07-18T14:23:09;7.45;;;2.47;;
57561;SDS011;43397;51.530;5.974;2022-07-18T14:25:35;4.20;;;1.80;;
57561;SDS011;43397;51.530;5.974;2022-07-18T14:28:02;4.00;;;1.70;;
57561;SDS011;43397;51.530;5.974;2022-07-18T14:30:28;4.70;;;1.80;;
57561;SDS011;43397;51.530;5.974;2022-07-18T14:32:53;5.68;;;1.90;;
57561;SDS011;43397;51.530;5.974;2022-07-18T14:37:45;4.07;;;1.60;;
57561;SDS011;43397;51.530;5.974;2022-07-18T14:40:13;4.65;;;1.88;;
57561;SDS011;43397;51.530;5.974;2022-07-18T14:42:39;5.65;;;1.70;;
57561;SDS011;43397;51.530;5.974;2022-07-18T14:45:09;4.47;;;1.98;;
57561;SDS011;43397;51.530;5.974;2022-07-18T14:47:35;5.38;;;2.10;;
57561;SDS011;43397;51.530;5.974;2022-07-18T14:50:01;5.03;;;1.60;;
57561;SDS011;43397;51.530;5.974;2022-07-18T14:52:28;6.38;;;1.70;;
57561;SDS011;43397;51.530;5.974;2022-07-18T14:54:54;4.90;;;2.13;;
57561;SDS011;43397;51.530;5.974;2022-07-18T14:59:45;5.78;;;2.15;;
57561;SDS011;43397;51.530;5.974;2022-07-18T15:02:12;4.72;;;2.13;;
57561;SDS011;43397;51.530;5.974;2022-07-18T15:04:38;4.82;;;1.77;;
57561;SDS011;43397;51.530;5.974;2022-07-18T15:07:04;6.43;;;1.88;;
57561;SDS011;43397;51.530;5.974;2022-07-18T15:09:30;3.28;;;1.48;;
57561;SDS011;43397;51.530;5.974;2022-07-18T15:11:56;5.88;;;1.92;;
57561;SDS011;43397;51.530;5.974;2022-07-18T15:14:22;5.03;;;1.90;;
57561;SDS011;43397;51.530;5.974;2022-07-18T15:16:47;4.15;;;1.80;;
57561;SDS011;43397;51.530;5.974;2022-07-18T15:19:15;3.53;;;1.80;;
57561;SDS011;43397;51.530;5.974;2022-07-18T15:21:41;3.33;;;1.67;;
57561;SDS011;43397;51.530;5.974;2022-07-18T15:24:06;6.80;;;2.00;;
57561;SDS011;43397;51.530;5.974;2022-07-18T15:26:32;4.72;;;1.88;;
57561;SDS011;43397;51.530;5.974;2022-07-18T15:28:58;5.85;;;1.88;;
57561;SDS011;43397;51.530;5.974;2022-07-18T15:31:24;6.93;;;2.08;;
57561;SDS011;43397;51.530;5.974;2022-07-18T15:33:50;4.15;;;1.50;;
57561;SDS011;43397;51.530;5.974;2022-07-18T15:36:17;4.80;;;1.75;;
57561;SDS011;43397;51.530;5.974;2022-07-18T15:38:43;6.50;;;1.65;;
57561;SDS011;43397;51.530;5.974;2022-07-18T15:41:09;4.85;;;1.80;;
57561;SDS011;43397;51.530;5.974;2022-07-18T15:43:36;5.22;;;2.38;;
57561;SDS011;43397;51.530;5.974;2022-07-18T15:46:04;4.93;;;2.10;;
57561;SDS011;43397;51.530;5.974;2022-07-18T15:48:30;9.35;;;2.40;;
57561;SDS011;43397;51.530;5.974;2022-07-18T15:50:56;5.97;;;2.10;;
57561;SDS011;43397;51.530;5.974;2022-07-18T15:53:23;4.75;;;2.20;;
57561;SDS011;43397;51.530;5.974;2022-07-18T15:55:49;5.43;;;2.03;;